Time;durP1;ratioP1;P1;durP2;ratioP2;P2;SDS_P1;SDS_P2;PMS_P1;PMS_P2;Temp;Humidity;BMP_temperature;BMP_pressure;BME280_temperature;BME280_humidity;BME280_pressure;Samples;Min_cycle;Max_cycle;Signal;HPM_P1;HPM_P2
2022/04/12 00:01:10;;;;;;;1.05;1.05;;;9.30;99.90;;;;;;5050496;28;20232;-76
2022/04/12 00:03:36;;;;;;;0.80;0.80;;;9.30;99.90;;;;;;5051245;28;20207;-76
2022/04/12 00:06:05;;;;;;;0.50;0.40;;;9.30;99.90;;;;;;5051046;28;20203;-76
2022/04/12 00:08:32;;;;;;;0.50;0.40;;;9.30;99.90;;;;;;5051358;28;20219;-76
2022/04/12 00:10:58;;;;;;;0.50;0.40;;;9.30;99.90;;;;;;5049935;28;20200;-76
2022/04/12 00:13:25;;;;;;;0.50;0.40;;;9.30;99.90;;;;;;5051610;28;20222;-76
2022/04/12 00:15:52;;;;;;;0.50;0.40;;;9.20;99.90;;;;;;5051280;28;20195;-76
2022/04/12 00:21:05;;;;;;;0.50;0.40;;;9.20;99.90;;;;;;5050011;28;20225;-76
2022/04/12 00:23:31;;;;;;;0.50;0.40;;;9.20;99.90;;;;;;5049962;28;20197;-76
2022/04/12 00:25:58;;;;;;;0.50;0.40;;;9.20;99.90;;;;;;5052603;28;20204;-76
2022/04/12 00:28:26;;;;;;;0.50;0.40;;;9.20;99.90;;;;;;5054700;28;20216;-76
2022/04/12 00:30:53;;;;;;;0.50;0.40;;;9.20;99.90;;;;;;5053515;28;20200;-76
2022/04/12 00:33:20;;;;;;;0.50;0.40;;;9.20;99.90;;;;;;5054572;28;20673;-76
2022/04/12 00:35:47;;;;;;;0.50;0.40;;;9.20;99.90;;;;;;5054826;28;20198;-76
2022/04/12 00:38:18;;;;;;;0.50;0.40;;;9.10;99.90;;;;;;5053948;28;20231;-76
2022/04/12 00:40:45;;;;;;;0.50;0.40;;;9.10;99.90;;;;;;5053872;28;20185;-76
2022/04/12 00:43:12;;;;;;;0.50;0.40;;;9.00;99.90;;;;;;5054505;28;20208;-76
2022/04/12 00:45:39;;;;;;;0.50;0.40;;;9.00;99.90;;;;;;5054224;28;20194;-76
2022/04/12 00:48:06;;;;;;;0.50;0.40;;;9.00;99.90;;;;;;5054202;28;20227;-76
2022/04/12 00:50:32;;;;;;;1.05;1.05;;;9.00;99.90;;;;;;5053869;28;20198;-76
2022/04/12 00:53:00;;;;;;;0.50;0.40;;;8.90;99.90;;;;;;5053821;28;20206;-76
2022/04/12 00:55:29;;;;;;;0.50;0.40;;;8.90;99.90;;;;;;5054405;28;20201;-75
2022/04/12 00:57:56;;;;;;;0.50;0.40;;;8.90;99.90;;;;;;5053759;28;20229;-76
2022/04/12 01:00:24;;;;;;;0.85;0.85;;;8.90;99.90;;;;;;5053280;28;20664;-76
2022/04/12 01:02:50;;;;;;;0.50;0.40;;;8.80;99.90;;;;;;5054139;28;20600;-75
2022/04/12 01:05:17;;;;;;;1.95;1.85;;;8.80;99.90;;;;;;5053638;28;20537;-76
2022/04/12 01:07:44;;;;;;;0.50;0.40;;;8.90;99.90;;;;;;5053487;28;20220;-76
2022/04/12 01:10:11;;;;;;;0.50;0.40;;;8.80;99.90;;;;;;5053172;28;20200;-76
2022/04/12 01:12:40;;;;;;;0.50;0.40;;;8.80;99.90;;;;;;5053936;28;20205;-76
2022/04/12 01:15:11;;;;;;;0.50;0.40;;;8.80;99.90;;;;;;5053692;28;20191;-76
2022/04/12 01:17:38;;;;;;;0.50;0.40;;;8.70;99.90;;;;;;5053595;28;20221;-76
2022/04/12 01:20:06;;;;;;;0.50;0.40;;;8.70;99.90;;;;;;5052979;28;20545;-76
2022/04/12 01:22:35;;;;;;;0.50;0.40;;;8.70;99.90;;;;;;5051879;28;20222;-76
2022/04/12 01:25:04;;;;;;;0.50;0.40;;;8.70;99.90;;;;;;5053697;28;20220;-76
2022/04/12 01:27:31;;;;;;;0.50;0.40;;;8.70;99.90;;;;;;5053129;28;20175;-76
2022/04/12 01:29:58;;;;;;;0.50;0.40;;;8.70;99.90;;;;;;5053932;28;20202;-76
2022/04/12 01:32:25;;;;;;;0.50;0.40;;;8.70;99.90;;;;;;5053389;28;20196;-76
2022/04/12 01:34:52;;;;;;;0.50;0.40;;;8.60;99.90;;;;;;5053307;28;20200;-76
2022/04/12 01:37:18;;;;;;;0.50;0.40;;;8.60;99.90;;;;;;5052597;28;20692;-76
2022/04/12 01:39:45;;;;;;;0.60;0.60;;;8.50;99.90;;;;;;5052801;28;20198;-75
2022/04/12 01:42:13;;;;;;;0.50;0.40;;;8.50;99.90;;;;;;5052187;28;20194;-73
2022/04/12 01:44:40;;;;;;;0.50;0.40;;;8.40;99.90;;;;;;5053537;28;20202;-76
2022/04/12 01:47:07;;;;;;;0.50;0.40;;;8.40;99.90;;;;;;5053086;28;20202;-76
2022/04/12 01:49:33;;;;;;;0.50;0.40;;;8.30;99.90;;;;;;5052615;28;20223;-76
2022/04/12 01:52:02;;;;;;;0.50;0.40;;;8.30;99.90;;;;;;5052839;28;20195;-76
2022/04/12 01:54:29;;;;;;;0.50;0.40;;;8.30;99.90;;;;;;5052829;28;20256;-76
2022/04/12 01:56:55;;;;;;;0.50;0.50;;;8.30;99.90;;;;;;5052810;28;20638;-76
2022/04/12 01:59:23;;;;;;;0.50;0.40;;;8.20;99.90;;;;;;5052139;28;20218;-76
2022/04/12 02:01:50;;;;;;;0.50;0.40;;;8.10;99.90;;;;;;5052840;28;20219;-76
2022/04/12 02:04:17;;;;;;;0.50;0.40;;;8.10;99.90;;;;;;5053041;28;20202;-76
2022/04/12 02:06:43;;;;;;;0.50;0.40;;;8.10;99.90;;;;;;5052667;28;20206;-76
2022/04/12 02:09:10;;;;;;;0.50;0.40;;;8.10;99.90;;;;;;5051811;28;20211;-76
2022/04/12 02:11:37;;;;;;;0.50;0.40;;;8.10;99.90;;;;;;5052718;28;20196;-76
2022/04/12 02:14:04;;;;;;;1.60;1.55;;;8.10;99.90;;;;;;5052107;28;20206;-76
2022/04/12 02:16:32;;;;;;;0.50;0.40;;;8.10;99.90;;;;;;5052990;28;20202;-76
2022/04/12 02:18:58;;;;;;;0.50;0.40;;;8.10;99.90;;;;;;5051602;28;20218;-74
2022/04/12 02:21:25;;;;;;;0.50;0.40;;;8.10;99.90;;;;;;5051031;28;20195;-74
2022/04/12 02:23:52;;;;;;;0.50;0.40;;;8.10;99.90;;;;;;5052334;28;20691;-76
2022/04/12 02:26:18;;;;;;;0.50;0.40;;;8.10;99.90;;;;;;5052258;28;20214;-75
2022/04/12 02:28:45;;;;;;;0.50;0.40;;;8.20;99.90;;;;;;5051939;28;20211;-73
2022/04/12 02:31:12;;;;;;;0.50;0.40;;;8.20;99.90;;;;;;5052012;28;20687;-76
2022/04/12 02:33:40;;;;;;;0.50;0.50;;;8.10;99.90;;;;;;5052234;28;20222;-76
2022/04/12 02:36:07;;;;;;;0.50;0.40;;;8.10;99.90;;;;;;5052500;28;20195;-77
2022/04/12 02:38:33;;;;;;;0.50;0.40;;;8.20;99.90;;;;;;5052389;28;20615;-76
2022/04/12 02:41:00;;;;;;;0.50;0.40;;;8.20;99.90;;;;;;5051510;28;20206;-76
2022/04/12 02:43:27;;;;;;;0.50;0.40;;;8.20;99.90;;;;;;5052138;28;20668;-76
2022/04/12 02:45:53;;;;;;;0.50;0.40;;;8.20;99.90;;;;;;5052153;28;20199;-76
2022/04/12 02:48:20;;;;;;;0.50;0.50;;;8.20;99.90;;;;;;5050731;28;20701;-76
2022/04/12 02:50:48;;;;;;;0.50;0.40;;;8.30;99.90;;;;;;5051201;28;20202;-76
2022/04/12 02:53:15;;;;;;;0.50;0.40;;;8.30;99.90;;;;;;5052228;28;20230;-76
2022/04/12 02:55:42;;;;;;;0.50;0.40;;;8.30;99.90;;;;;;5051528;28;20199;-73
2022/04/12 02:58:09;;;;;;;0.50;0.40;;;8.30;99.90;;;;;;5051428;28;20221;-76
2022/04/12 03:00:36;;;;;;;4.43;1.67;;;8.30;99.90;;;;;;5051266;28;20197;-76
2022/04/12 03:03:02;;;;;;;0.50;0.40;;;8.30;99.90;;;;;;5051531;28;20198;-76
2022/04/12 03:05:30;;;;;;;0.50;0.40;;;8.30;99.90;;;;;;5051858;28;20199;-76
2022/04/12 03:07:58;;;;;;;0.50;0.40;;;8.30;99.90;;;;;;5051626;28;20207;-76
2022/04/12 03:10:24;;;;;;;0.50;0.40;;;8.20;99.90;;;;;;5050966;28;20576;-73
2022/04/12 03:12:51;;;;;;;0.50;0.40;;;8.20;99.90;;;;;;5051501;28;20202;-76
2022/04/12 03:15:18;;;;;;;0.50;0.40;;;8.10;99.90;;;;;;5051459;28;20195;-76
2022/04/12 03:17:46;;;;;;;0.50;0.40;;;8.00;99.90;;;;;;5050992;28;20218;-76
2022/04/12 03:20:13;;;;;;;0.50;0.40;;;8.00;99.90;;;;;;5050621;28;20681;-76
2022/04/12 03:22:41;;;;;;;0.50;0.40;;;8.00;99.90;;;;;;5049947;28;20206;-76
2022/04/12 03:25:10;;;;;;;0.50;0.40;;;7.90;99.90;;;;;;5051403;28;20615;-76
2022/04/12 03:27:37;;;;;;;0.50;0.40;;;7.90;99.90;;;;;;5051021;28;20195;-76
2022/04/12 03:30:05;;;;;;;0.50;0.40;;;7.90;99.90;;;;;;5050357;28;20206;-76
2022/04/12 03:32:32;;;;;;;0.50;0.40;;;7.90;99.90;;;;;;5051462;28;20202;-76
2022/04/12 03:34:58;;;;;;;0.50;0.40;;;7.80;99.90;;;;;;5051536;28;20261;-76
2022/04/12 03:37:25;;;;;;;0.50;0.40;;;7.70;99.90;;;;;;5051144;28;20701;-75
2022/04/12 03:39:52;;;;;;;0.50;0.40;;;7.70;99.90;;;;;;5049780;28;20214;-75
2022/04/12 03:42:20;;;;;;;0.50;0.40;;;7.70;99.90;;;;;;5051119;28;20669;-76
2022/04/12 03:44:47;;;;;;;0.50;0.40;;;7.70;99.90;;;;;;5051464;28;20194;-76
2022/04/12 03:47:13;;;;;;;0.50;0.40;;;7.70;99.90;;;;;;5051348;28;20201;-77
2022/04/12 03:49:40;;;;;;;0.50;0.40;;;7.60;99.90;;;;;;5050376;28;20214;-76
2022/04/12 03:52:09;;;;;;;0.50;0.40;;;7.60;99.90;;;;;;5050598;28;20195;-76
2022/04/12 03:54:36;;;;;;;0.82;0.80;;;7.60;99.90;;;;;;5051392;28;20191;-76
2022/04/12 03:57:02;;;;;;;0.50;0.40;;;7.70;99.90;;;;;;5051259;28;20594;-76
2022/04/12 03:59:30;;;;;;;0.50;0.40;;;7.70;99.90;;;;;;5051314;28;20219;-76
2022/04/12 04:01:57;;;;;;;0.50;0.40;;;7.60;99.90;;;;;;5054729;28;20190;-76
2022/04/12 04:04:24;;;;;;;0.50;0.38;;;7.40;99.90;;;;;;5055153;28;20630;-76
2022/04/12 04:06:50;;;;;;;0.50;0.40;;;7.40;99.90;;;;;;5055102;28;20199;-76
2022/04/12 04:09:17;;;;;;;0.50;0.40;;;7.40;99.90;;;;;;5054213;28;20214;-76
2022/04/12 04:11:45;;;;;;;0.50;0.40;;;7.50;99.90;;;;;;5055001;28;20213;-76
2022/04/12 04:14:13;;;;;;;2.58;2.47;;;7.50;99.90;;;;;;5054977;28;20194;-76
2022/04/12 04:16:41;;;;;;;0.50;0.40;;;7.50;99.90;;;;;;5055102;28;20603;-76
2022/04/12 04:19:09;;;;;;;0.50;0.40;;;7.60;99.90;;;;;;5053854;28;20242;-76
2022/04/12 04:21:36;;;;;;;0.60;0.52;;;7.60;99.90;;;;;;5052892;28;20199;-75
2022/04/12 04:24:03;;;;;;;0.50;0.40;;;7.60;99.90;;;;;;5054658;28;20191;-76
2022/04/12 04:26:29;;;;;;;0.50;0.40;;;7.70;99.90;;;;;;5054671;28;20213;-76
2022/04/12 04:28:56;;;;;;;0.50;0.40;;;7.60;99.90;;;;;;5053920;28;20704;-76
2022/04/12 04:31:23;;;;;;;0.50;0.40;;;7.60;99.90;;;;;;5054370;28;20191;-76
2022/04/12 04:33:51;;;;;;;0.50;0.40;;;7.70;99.90;;;;;;5054520;28;20240;-76
2022/04/12 04:36:18;;;;;;;2.70;2.60;;;7.60;99.90;;;;;;5054630;28;20199;-76
2022/04/12 04:38:45;;;;;;;0.50;0.40;;;7.60;99.90;;;;;;5054255;28;20265;-75
2022/04/12 04:41:11;;;;;;;0.50;0.40;;;7.50;99.90;;;;;;5054114;28;20679;-76
2022/04/12 04:43:38;;;;;;;0.50;0.40;;;7.50;99.90;;;;;;5054375;28;20298;-76
2022/04/12 04:46:05;;;;;;;0.50;0.40;;;7.40;99.90;;;;;;5054020;28;20620;-76
2022/04/12 04:48:31;;;;;;;0.50;0.40;;;7.30;99.90;;;;;;5054112;28;20207;-75
2022/04/12 04:50:59;;;;;;;0.50;0.40;;;7.30;99.90;;;;;;5053391;28;20195;-76
2022/04/12 04:53:26;;;;;;;0.50;0.40;;;7.20;99.90;;;;;;5054625;28;20529;-76
2022/04/12 04:55:53;;;;;;;0.50;0.40;;;7.20;99.90;;;;;;5054125;28;20194;-75
2022/04/12 04:58:20;;;;;;;0.50;0.40;;;7.20;99.90;;;;;;5053477;28;20219;-76
2022/04/12 05:00:46;;;;;;;0.50;0.40;;;7.20;99.90;;;;;;5053410;28;20572;-75
2022/04/12 05:03:13;;;;;;;0.50;0.40;;;7.20;99.90;;;;;;5054282;28;20202;-76
2022/04/12 05:05:40;;;;;;;0.50;0.40;;;7.20;99.90;;;;;;5054278;28;20273;-77
2022/04/12 05:08:08;;;;;;;0.50;0.40;;;7.20;99.90;;;;;;5054086;28;20597;-77
2022/04/12 05:10:35;;;;;;;0.50;0.40;;;7.20;99.90;;;;;;5052310;28;20198;-77
2022/04/12 05:13:02;;;;;;;0.50;0.40;;;7.20;99.90;;;;;;5053816;28;20206;-76
2022/04/12 05:15:30;;;;;;;0.50;0.40;;;7.10;99.90;;;;;;5053724;28;20210;-76
2022/04/12 05:17:57;;;;;;;0.50;0.40;;;7.10;99.90;;;;;;5053825;28;20230;-75
2022/04/12 05:20:25;;;;;;;0.50;0.40;;;7.20;99.90;;;;;;5052818;28;20219;-77
2022/04/12 05:22:52;;;;;;;0.50;0.40;;;7.20;99.90;;;;;;5051446;28;20195;-77
2022/04/12 05:25:20;;;;;;;0.50;0.40;;;7.20;99.90;;;;;;5053198;28;20252;-77
2022/04/12 05:27:48;;;;;;;0.50;0.40;;;7.20;99.90;;;;;;5053427;28;20222;-77
2022/04/12 05:30:16;;;;;;;25.27;2.78;;;7.30;99.90;;;;;;5052368;28;20353;-75
2022/04/12 05:32:42;;;;;;;0.50;0.40;;;7.30;99.90;;;;;;5053641;28;20684;-75
2022/04/12 05:35:10;;;;;;;0.50;0.40;;;7.30;99.90;;;;;;5053332;28;20195;-77
2022/04/12 05:37:44;;;;;;;1.73;1.60;;;7.40;99.90;;;;;;5053468;28;20657;-74
2022/04/12 05:40:12;;;;;;;0.50;0.40;;;7.60;99.90;;;;;;5051875;28;20220;-75
2022/04/12 05:42:41;;;;;;;0.50;0.40;;;7.80;99.90;;;;;;5053520;28;20568;-75
2022/04/12 05:45:10;;;;;;;0.50;0.40;;;8.30;99.90;;;;;;5052983;28;20207;-75
2022/04/12 05:47:44;;;;;;;0.50;0.40;;;8.80;99.90;;;;;;5052893;28;20199;-75
2022/04/12 05:50:13;;;;;;;0.50;0.40;;;9.40;99.90;;;;;;5052400;28;20190;-75
2022/04/12 05:52:41;;;;;;;0.50;0.40;;;9.90;99.90;;;;;;5053149;28;20200;-75
2022/04/12 05:55:09;;;;;;;0.50;0.40;;;10.30;99.90;;;;;;5053039;28;20207;-74
2022/04/12 05:57:37;;;;;;;0.50;0.40;;;11.30;99.90;;;;;;5052657;28;20209;-75
2022/04/12 06:00:07;;;;;;;0.50;0.40;;;12.90;99.90;;;;;;5051838;28;20257;-75
2022/04/12 06:02:34;;;;;;;0.50;0.40;;;14.60;99.90;;;;;;5052490;28;20614;-75
2022/04/12 06:05:01;;;;;;;0.50;0.40;;;15.60;99.90;;;;;;5052981;28;20433;-75
2022/04/12 06:07:31;;;;;;;0.50;0.43;;;16.00;99.90;;;;;;5052608;28;20445;-75
2022/04/12 06:09:59;;;;;;;0.50;0.40;;;15.70;99.90;;;;;;5051844;28;20483;-75
2022/04/12 06:12:26;;;;;;;0.50;0.40;;;15.30;99.90;;;;;;5052581;28;20449;-75
2022/04/12 06:14:52;;;;;;;0.50;0.40;;;15.00;99.90;;;;;;5052656;28;20439;-75
2022/04/12 06:17:20;;;;;;;0.50;0.40;;;15.00;99.90;;;;;;5052210;28;20453;-76
2022/04/12 06:19:47;;;;;;;0.50;0.40;;;15.50;99.90;;;;;;5051658;28;20473;-75
2022/04/12 06:22:14;;;;;;;0.50;0.40;;;16.20;99.90;;;;;;5050920;28;20449;-76
2022/04/12 06:24:42;;;;;;;0.50;0.40;;;17.10;99.90;;;;;;5051856;28;20453;-75
2022/04/12 06:27:09;;;;;;;0.60;0.30;;;18.00;99.90;;;;;;5051937;28;20463;-75
2022/04/12 06:29:36;;;;;;;0.50;0.30;;;19.00;98.50;;;;;;5051149;28;20823;-76
2022/04/12 06:32:03;;;;;;;0.50;0.30;;;20.30;94.10;;;;;;5051961;28;20445;-76
2022/04/12 06:34:31;;;;;;;0.50;0.30;;;21.40;85.00;;;;;;5052296;28;20445;-76
2022/04/12 06:36:57;;;;;;;0.50;0.30;;;22.40;79.70;;;;;;5052036;28;20934;-76
2022/04/12 06:39:24;;;;;;;0.60;0.40;;;23.60;75.60;;;;;;5050699;28;20477;-76
2022/04/12 06:41:51;;;;;;;0.50;0.40;;;24.80;71.00;;;;;;5051519;28;20441;-77
2022/04/12 06:44:17;;;;;;;0.50;0.30;;;25.50;65.70;;;;;;5051842;28;20943;-76
2022/04/12 06:46:44;;;;;;;0.60;0.40;;;26.30;63.00;;;;;;5051959;28;20462;-76
2022/04/12 06:49:11;;;;;;;0.50;0.30;;;27.30;58.60;;;;;;5050978;28;20460;-76
2022/04/12 06:51:39;;;;;;;0.50;0.30;;;27.50;53.50;;;;;;5051356;28;20506;-76
2022/04/12 06:54:06;;;;;;;0.50;0.30;;;27.90;52.50;;;;;;5051741;28;20981;-77
2022/04/12 06:56:33;;;;;;;2.27;0.73;;;28.40;51.00;;;;;;5051725;28;20532;-76
2022/04/12 06:58:59;;;;;;;0.50;0.40;;;27.40;48.30;;;;;;5050710;28;20854;-75
2022/04/12 07:01:26;;;;;;;0.50;0.50;;;25.70;49.90;;;;;;5051718;28;20448;-76
2022/04/12 07:03:53;;;;;;;0.83;0.83;;;24.80;50.00;;;;;;5051476;28;20438;-75
2022/04/12 07:06:19;;;;;;;0.50;0.30;;;24.00;51.40;;;;;;5051054;28;20444;-75
2022/04/12 07:08:47;;;;;;;0.50;0.30;;;23.20;52.60;;;;;;5050958;28;20463;-73
2022/04/12 07:11:14;;;;;;;0.50;0.40;;;23.90;52.90;;;;;;5051198;28;20441;-75
2022/04/12 07:13:41;;;;;;;0.50;0.33;;;23.10;52.30;;;;;;5051386;28;20460;-75
2022/04/12 07:16:07;;;;;;;0.60;0.60;;;23.00;52.60;;;;;;5051655;28;20582;-75
2022/04/12 07:18:34;;;;;;;0.50;0.40;;;23.90;52.40;;;;;;5051351;28;20472;-75
2022/04/12 07:21:01;;;;;;;0.90;0.50;;;24.30;51.50;;;;;;5049642;28;20476;-75
2022/04/12 07:23:28;;;;;;;0.50;0.40;;;23.00;52.00;;;;;;5055525;28;20445;-76
2022/04/12 07:25:56;;;;;;;0.90;0.90;;;22.90;52.90;;;;;;5062569;28;20574;-76
2022/04/12 07:28:22;;;;;;;0.60;0.40;;;22.70;52.90;;;;;;5071503;28;20833;-75
2022/04/12 07:30:49;;;;;;;0.50;0.40;;;22.30;52.70;;;;;;5071581;28;20444;-74
2022/04/12 07:33:16;;;;;;;0.50;0.30;;;22.80;53.50;;;;;;5071084;28;20565;-76
2022/04/12 07:35:43;;;;;;;0.50;0.30;;;24.00;53.40;;;;;;5070234;28;20751;-76
2022/04/12 07:38:10;;;;;;;0.50;0.40;;;24.00;52.00;;;;;;5070830;28;20456;-75
2022/04/12 07:40:36;;;;;;;0.50;0.30;;;23.30;52.30;;;;;;5069958;28;20510;-76
2022/04/12 07:43:05;;;;;;;0.50;0.30;;;23.40;52.00;;;;;;5071121;28;20810;-75
2022/04/12 07:45:31;;;;;;;0.50;0.37;;;23.60;53.00;;;;;;5070670;28;20447;-76
2022/04/12 07:47:59;;;;;;;0.50;0.33;;;24.20;52.20;;;;;;5070698;28;20456;-75
2022/04/12 07:50:26;;;;;;;0.50;0.40;;;24.20;51.60;;;;;;5069810;28;20893;-76
2022/04/12 07:52:53;;;;;;;0.50;0.30;;;24.30;52.20;;;;;;5071253;28;20441;-76
2022/04/12 07:55:20;;;;;;;0.60;0.60;;;25.10;51.50;;;;;;5070752;28;20439;-78
2022/04/12 07:57:46;;;;;;;0.60;0.40;;;24.90;50.80;;;;;;5071183;28;20787;-76
2022/04/12 08:00:16;;;;;;;0.70;0.70;;;25.40;50.60;;;;;;5069984;28;20941;-76
2022/04/12 08:02:42;;;;;;;0.50;0.40;;;24.40;50.40;;;;;;5070908;28;20520;-77
2022/04/12 08:05:09;;;;;;;2.30;0.80;;;23.00;52.10;;;;;;5071182;28;20514;-76
2022/04/12 08:07:37;;;;;;;1.00;0.90;;;22.40;53.70;;;;;;5070846;28;20826;-77
2022/04/12 08:10:04;;;;;;;0.50;0.37;;;22.10;52.80;;;;;;5070417;28;20440;-77
2022/04/12 08:12:31;;;;;;;0.50;0.43;;;22.60;53.70;;;;;;5070494;28;20440;-73
2022/04/12 08:14:59;;;;;;;1.23;0.67;;;23.10;52.40;;;;;;5070948;28;20794;-77
2022/04/12 08:17:27;;;;;;;0.77;0.53;;;22.70;52.80;;;;;;5070450;28;20485;-77
2022/04/12 08:19:54;;;;;;;0.50;0.40;;;22.50;53.30;;;;;;5070175;28;20503;-77
2022/04/12 08:22:21;;;;;;;0.50;0.30;;;23.80;53.10;;;;;;5069037;28;20458;-77
2022/04/12 08:24:47;;;;;;;0.50;0.40;;;24.70;52.00;;;;;;5070530;28;20534;-77
2022/04/12 08:27:14;;;;;;;0.50;0.40;;;24.20;50.90;;;;;;5070512;28;20451;-77
2022/04/12 08:29:41;;;;;;;0.57;0.47;;;23.50;51.70;;;;;;5069821;28;20570;-77
2022/04/12 08:32:08;;;;;;;0.50;0.40;;;22.70;52.40;;;;;;5070761;28;20510;-76
2022/04/12 08:34:36;;;;;;;0.60;0.40;;;22.60;53.10;;;;;;5070813;28;20455;-73
2022/04/12 08:37:05;;;;;;;0.60;0.50;;;22.10;53.40;;;;;;5070205;28;20463;-77
2022/04/12 08:39:31;;;;;;;0.80;0.60;;;21.90;54.50;;;;;;5069863;28;20460;-75
2022/04/12 08:42:00;;;;;;;0.50;0.40;;;23.00;53.90;;;;;;5070277;28;20440;-77
2022/04/12 08:44:27;;;;;;;0.50;0.40;;;23.60;54.70;;;;;;5070557;28;20921;-78
2022/04/12 08:46:57;;;;;;;0.60;0.50;;;24.60;53.80;;;;;;5071942;28;20436;-77
2022/04/12 08:49:24;;;;;;;0.50;0.40;;;23.90;51.60;;;;;;5073462;28;20467;-77
2022/04/12 08:51:53;;;;;;;0.50;0.30;;;24.30;52.10;;;;;;5074394;28;20447;-75
2022/04/12 08:54:20;;;;;;;0.50;0.30;;;24.80;52.50;;;;;;5073904;28;20440;-77
2022/04/12 08:56:48;;;;;;;0.50;0.40;;;25.80;52.60;;;;;;5073343;28;20942;-77
2022/04/12 08:59:16;;;;;;;0.50;0.30;;;27.10;50.90;;;;;;5073505;28;20462;-77
2022/04/12 09:01:43;;;;;;;0.50;0.40;;;27.30;49.40;;;;;;5073907;28;20472;-78
2022/04/12 09:04:11;;;;;;;0.53;0.53;;;27.00;49.50;;;;;;5073534;28;20743;-76
2022/04/12 09:06:48;;;;;;;0.70;0.50;;;26.80;50.60;;;;;;5073601;28;20835;-73
2022/04/12 09:09:18;;;;;;;0.50;0.30;;;26.50;49.40;;;;;;5072577;28;20460;-76
2022/04/12 09:11:56;;;;;;;0.50;0.40;;;26.50;50.10;;;;;;5073966;28;20531;-74
2022/04/12 09:14:23;;;;;;;0.60;0.47;;;26.20;50.20;;;;;;5073507;28;20478;-75
2022/04/12 09:16:49;;;;;;;0.50;0.40;;;25.10;50.40;;;;;;5073284;28;20813;-75
2022/04/12 09:19:16;;;;;;;0.50;0.30;;;24.50;51.60;;;;;;5072572;28;20461;-75
2022/04/12 09:21:48;;;;;;;1.27;1.10;;;25.30;52.30;;;;;;5072019;28;20486;-75
2022/04/12 09:24:21;;;;;;;1.30;0.60;;;25.70;50.70;;;;;;5073483;28;20444;-76
2022/04/12 09:26:55;;;;;;;1.07;0.50;;;25.60;51.20;;;;;;5073178;28;20929;-76
2022/04/12 09:29:27;;;;;;;0.50;0.40;;;25.60;50.60;;;;;;5072161;28;20479;-75
2022/04/12 09:31:56;;;;;;;1.07;0.97;;;25.20;50.90;;;;;;5073546;28;20520;-76
2022/04/12 09:34:23;;;;;;;0.50;0.30;;;25.50;50.80;;;;;;5073497;28;20845;-76
2022/04/12 09:36:50;;;;;;;0.50;0.30;;;25.60;51.40;;;;;;5073081;28;20792;-76
2022/04/12 09:39:19;;;;;;;0.50;0.40;;;27.00;50.20;;;;;;5072170;28;20472;-77
2022/04/12 09:41:48;;;;;;;0.50;0.40;;;27.90;49.00;;;;;;5072759;28;20479;-75
2022/04/12 09:44:19;;;;;;;0.70;0.60;;;28.00;48.10;;;;;;5072779;28;20441;-77
2022/04/12 09:46:47;;;;;;;0.50;0.30;;;28.00;48.90;;;;;;5072991;28;20427;-77
2022/04/12 09:49:14;;;;;;;0.50;0.37;;;28.40;48.00;;;;;;5071659;28;21001;-76
2022/04/12 09:51:41;;;;;;;0.50;0.40;;;28.70;47.90;;;;;;5072727;28;20432;-76
2022/04/12 09:54:09;;;;;;;0.50;0.40;;;28.90;47.90;;;;;;5072794;28;20448;-76
2022/04/12 09:56:39;;;;;;;0.50;0.40;;;28.00;47.60;;;;;;5072723;28;20945;-76
2022/04/12 09:59:07;;;;;;;0.50;0.40;;;27.30;47.70;;;;;;5071408;28;20825;-76
2022/04/12 10:01:39;;;;;;;0.70;0.70;;;27.10;48.10;;;;;;5072587;28;20562;-76
2022/04/12 10:04:08;;;;;;;0.50;0.30;;;25.70;49.40;;;;;;5073011;28;20478;-76
2022/04/12 10:06:39;;;;;;;0.50;0.40;;;24.90;51.00;;;;;;5072521;28;20432;-76
2022/04/12 10:09:07;;;;;;;0.50;0.30;;;25.80;50.70;;;;;;5071883;28;20781;-76
2022/04/12 10:11:36;;;;;;;0.77;0.47;;;24.90;50.90;;;;;;5072420;28;20542;-76
2022/04/12 10:14:03;;;;;;;0.50;0.30;;;25.60;51.20;;;;;;5072740;28;20530;-76
2022/04/12 10:16:33;;;;;;;2.33;0.63;;;26.60;50.50;;;;;;5072473;28;20452;-76
2022/04/12 10:19:01;;;;;;;0.70;0.50;;;26.90;49.10;;;;;;5071648;28;20517;-76
2022/04/12 10:21:28;;;;;;;0.50;0.30;;;26.80;48.70;;;;;;5070455;28;20487;-76
2022/04/12 10:23:57;;;;;;;0.80;0.50;;;27.20;49.00;;;;;;5072017;28;20443;-75
2022/04/12 10:26:26;;;;;;;0.60;0.60;;;27.10;50.90;;;;;;5069775;28;20452;-75
2022/04/12 10:28:54;;;;;;;0.50;0.30;;;27.40;48.50;;;;;;5070212;28;20864;-75
2022/04/12 10:31:24;;;;;;;5.20;0.70;;;27.50;49.30;;;;;;5071833;28;20432;-75
2022/04/12 10:34:09;;;;;;;0.50;0.40;;;27.30;48.70;;;;;;5065400;28;20449;-76
2022/04/12 10:36:59;;;;;;;0.60;0.50;;;27.00;49.80;;;;;;5071542;28;20434;-76
2022/04/12 10:39:34;;;;;;;0.50;0.30;;;26.80;49.00;;;;;;5071139;28;20885;-76
2022/04/12 10:42:04;;;;;;;0.50;0.30;;;26.90;49.90;;;;;;5071877;28;20459;-75
2022/04/12 10:44:37;;;;;;;2.87;0.77;;;26.00;49.70;;;;;;5072151;28;20454;-75
2022/04/12 10:47:04;;;;;;;3.27;0.87;;;25.00;50.30;;;;;;5072216;28;20444;-76
2022/04/12 10:49:37;;;;;;;1.17;1.17;;;24.90;51.10;;;;;;5070904;28;20464;-76
2022/04/12 10:52:08;;;;;;;0.50;0.37;;;24.50;51.60;;;;;;5071994;28;20878;-76
2022/04/12 10:54:36;;;;;;;1.13;1.13;;;24.40;51.60;;;;;;5071541;28;20451;-74
2022/04/12 10:57:23;;;;;;;7.07;0.50;;;24.90;52.30;;;;;;5071332;28;20443;-77
2022/04/12 10:59:52;;;;;;;0.50;0.30;;;25.50;49.80;;;;;;5070920;28;20444;-77
2022/04/12 11:02:19;;;;;;;0.70;0.50;;;25.60;50.10;;;;;;5071745;28;20838;-77
2022/04/12 11:04:47;;;;;;;0.80;0.50;;;25.30;49.70;;;;;;5071822;28;20448;-77
2022/04/12 11:07:31;;;;;;;9.63;1.03;;;25.80;49.50;;;;;;5072299;28;20490;-75
2022/04/12 11:10:07;;;;;;;0.50;0.37;;;25.80;49.30;;;;;;5069855;28;20938;-77
2022/04/12 11:12:41;;;;;;;0.70;0.60;;;25.60;49.90;;;;;;5071725;28;20435;-73
2022/04/12 11:15:21;;;;;;;0.70;0.60;;;25.30;49.50;;;;;;5072086;28;20475;-76
2022/04/12 11:17:48;;;;;;;0.60;0.40;;;25.60;49.40;;;;;;5071005;28;20451;-76
2022/04/12 11:20:23;;;;;;;3.07;0.83;;;26.10;49.90;;;;;;5070901;28;20443;-76
2022/04/12 11:22:57;;;;;;;0.50;0.43;;;26.10;50.20;;;;;;5071332;28;20412;-77
2022/04/12 11:25:26;;;;;;;0.50;0.30;;;25.80;49.70;;;;;;5071481;28;20535;-77
2022/04/12 11:27:56;;;;;;;0.97;0.60;;;25.60;50.80;;;;;;5069746;28;20510;-76
2022/04/12 11:30:25;;;;;;;2.40;0.57;;;26.10;50.30;;;;;;5070964;28;20507;-77
2022/04/12 11:32:53;;;;;;;0.60;0.50;;;26.00;49.50;;;;;;5070886;28;20472;-76
2022/04/12 11:35:22;;;;;;;0.50;0.30;;;26.30;48.90;;;;;;5071400;28;20445;-77
2022/04/12 11:37:50;;;;;;;0.77;0.50;;;26.30;49.80;;;;;;5071066;28;20472;-77
2022/04/12 11:40:17;;;;;;;0.50;0.40;;;26.60;48.70;;;;;;5070899;28;20437;-77
2022/04/12 11:42:44;;;;;;;0.50;0.30;;;26.90;49.40;;;;;;5071257;28;20440;-76
2022/04/12 11:45:11;;;;;;;0.60;0.43;;;27.40;47.80;;;;;;5070915;28;20629;-73
2022/04/12 11:47:43;;;;;;;0.50;0.50;;;27.10;48.30;;;;;;5070846;28;20926;-76
2022/04/12 11:50:15;;;;;;;0.50;0.30;;;27.20;48.30;;;;;;5069833;28;20519;-77
2022/04/12 11:52:44;;;;;;;0.50;0.30;;;26.90;48.30;;;;;;5071069;28;20490;-78
2022/04/12 11:55:11;;;;;;;0.50;0.30;;;28.10;49.80;;;;;;5070913;28;20464;-77
2022/04/12 11:57:38;;;;;;;7.60;0.50;;;27.90;47.50;;;;;;5071273;28;20444;-77
2022/04/12 12:00:07;;;;;;;0.50;0.30;;;27.30;47.00;;;;;;5070068;28;20440;-77
2022/04/12 12:02:37;;;;;;;0.50;0.30;;;26.80;48.00;;;;;;5070854;28;20477;-76
2022/04/12 12:05:06;;;;;;;0.50;0.30;;;26.60;48.40;;;;;;5071111;28;20421;-78
2022/04/12 12:07:36;;;;;;;0.50;0.30;;;26.40;48.90;;;;;;5070737;28;20439;-77
2022/04/12 12:10:05;;;;;;;0.60;0.57;;;25.80;48.90;;;;;;5069938;28;20505;-78
2022/04/12 12:12:33;;;;;;;0.50;0.40;;;25.30;50.20;;;;;;5070571;28;20435;-74
2022/04/12 12:15:12;;;;;;;0.50;0.30;;;25.40;50.50;;;;;;5070339;28;20960;-77
2022/04/12 12:17:40;;;;;;;0.60;0.47;;;25.90;50.80;;;;;;5070497;28;20421;-77
2022/04/12 12:20:08;;;;;;;0.50;0.40;;;25.90;52.10;;;;;;5070480;28;20451;-77
2022/04/12 12:22:37;;;;;;;0.60;0.47;;;25.80;50.40;;;;;;5074931;28;20504;-74
2022/04/12 12:25:06;;;;;;;0.50;0.30;;;26.10;49.80;;;;;;5074049;28;20539;-77
2022/04/12 12:27:35;;;;;;;0.50;0.30;;;26.60;49.80;;;;;;5072733;28;20435;-77
2022/04/12 12:30:04;;;;;;;1.13;1.03;;;26.50;49.60;;;;;;5073557;28;20805;-78
2022/04/12 12:32:32;;;;;;;0.97;0.47;;;26.60;49.10;;;;;;5074724;28;20440;-77
2022/04/12 12:35:03;;;;;;;0.50;0.30;;;26.10;49.80;;;;;;5074081;28;20444;-77
2022/04/12 12:37:29;;;;;;;0.50;0.30;;;25.80;50.30;;;;;;5074261;28;20823;-75
2022/04/12 12:39:56;;;;;;;0.67;0.60;;;24.70;51.20;;;;;;5073150;28;20972;-77
2022/04/12 12:42:24;;;;;;;0.50;0.40;;;24.10;51.00;;;;;;5074510;28;20468;-77
2022/04/12 12:44:51;;;;;;;0.50;0.30;;;23.80;52.10;;;;;;5073960;28;20786;-77
2022/04/12 12:47:22;;;;;;;1.17;0.50;;;24.00;52.40;;;;;;5073993;28;20447;-77
2022/04/12 12:49:51;;;;;;;0.50;0.40;;;23.90;52.80;;;;;;5072949;28;20465;-75
2022/04/12 12:52:19;;;;;;;0.50;0.40;;;24.20;52.30;;;;;;5074083;28;20432;-77
2022/04/12 12:54:55;;;;;;;0.50;0.30;;;24.00;51.80;;;;;;5074261;28;20775;-77
2022/04/12 12:57:39;;;;;;;0.80;0.60;;;23.90;52.70;;;;;;5073900;28;20925;-77